sensor_id;sensor_type;location;lat;lon;timestamp;pressure;altitude;pressure_sealevel;temperature;humidity
33280;BME280;20403;43.114;12.434;2023-03-14T00:00:31;98926.50;;;10.21;100.00
33280;BME280;20403;43.114;12.434;2023-03-14T00:02:56;98935.50;;;10.07;100.00
33280;BME280;20403;43.114;12.434;2023-03-14T00:05:22;98929.53;;;10.06;100.00
33280;BME280;20403;43.114;12.434;2023-03-14T00:07:47;98921.63;;;10.25;100.00
33280;BME280;20403;43.114;12.434;2023-03-14T00:10:14;98918.75;;;10.33;100.00
33280;BME280;20403;43.114;12.434;2023-03-14T00:12:43;98916.81;;;10.28;100.00
33280;BME280;20403;43.114;12.434;2023-03-14T00:15:10;98911.28;;;10.48;100.00
33280;BME280;20403;43.114;12.434;2023-03-14T00:17:35;98902.78;;;10.53;100.00
33280;BME280;20403;43.114;12.434;2023-03-14T00:20:02;98899.94;;;10.66;100.00
33280;BME280;20403;43.114;12.434;2023-03-14T00:22:37;98894.97;;;11.00;100.00
33280;BME280;20403;43.114;12.434;2023-03-14T00:25:04;98897.81;;;10.75;100.00
33280;BME280;20403;43.114;12.434;2023-03-14T00:27:30;98891.56;;;10.64;100.00
33280;BME280;20403;43.114;12.434;2023-03-14T00:29:56;98896.09;;;10.45;100.00
33280;BME280;20403;43.114;12.434;2023-03-14T00:32:21;98885.88;;;10.32;100.00
33280;BME280;20403;43.114;12.434;2023-03-14T00:34:46;98897.91;;;10.33;100.00
33280;BME280;20403;43.114;12.434;2023-03-14T00:37:12;98890.88;;;10.34;100.00
33280;BME280;20403;43.114;12.434;2023-03-14T00:39:37;98866.94;;;10.37;100.00
33280;BME280;20403;43.114;12.434;2023-03-14T00:42:03;98862.84;;;10.17;100.00
33280;BME280;20403;43.114;12.434;2023-03-14T00:44:28;98846.53;;;10.22;100.00
33280;BME280;20403;43.114;12.434;2023-03-14T00:46:54;98848.03;;;10.29;100.00
33280;BME280;20403;43.114;12.434;2023-03-14T00:49:19;98843.34;;;10.08;100.00
33280;BME280;20403;43.114;12.434;2023-03-14T00:51:45;98847.75;;;10.07;100.00
33280;BME280;20403;43.114;12.434;2023-03-14T00:54:10;98851.47;;;10.00;100.00
33280;BME280;20403;43.114;12.434;2023-03-14T00:56:35;98845.78;;;9.91;100.00
33280;BME280;20403;43.114;12.434;2023-03-14T00:59:01;98836.38;;;9.90;100.00
33280;BME280;20403;43.114;12.434;2023-03-14T01:01:26;98824.13;;;9.79;100.00
33280;BME280;20403;43.114;12.434;2023-03-14T01:03:52;98827.63;;;9.73;100.00
33280;BME280;20403;43.114;12.434;2023-03-14T01:06:23;98806.25;;;9.71;100.00
33280;BME280;20403;43.114;12.434;2023-03-14T01:08:49;98808.28;;;9.68;100.00
33280;BME280;20403;43.114;12.434;2023-03-14T01:11:34;98806.00;;;9.72;100.00
33280;BME280;20403;43.114;12.434;2023-03-14T01:14:00;98799.56;;;9.86;100.00
33280;BME280;20403;43.114;12.434;2023-03-14T01:16:28;98801.97;;;9.88;100.00
33280;BME280;20403;43.114;12.434;2023-03-14T01:18:54;98794.06;;;10.18;100.00
33280;BME280;20403;43.114;12.434;2023-03-14T01:21:22;98799.38;;;10.12;100.00
33280;BME280;20403;43.114;12.434;2023-03-14T01:23:49;98789.19;;;10.22;100.00
33280;BME280;20403;43.114;12.434;2023-03-14T01:26:17;98779.28;;;10.30;100.00
33280;BME280;20403;43.114;12.434;2023-03-14T01:28:47;98767.59;;;10.33;100.00
33280;BME280;20403;43.114;12.434;2023-03-14T01:31:14;98756.91;;;10.23;100.00
33280;BME280;20403;43.114;12.434;2023-03-14T01:33:40;98754.31;;;10.11;100.00
33280;BME280;20403;43.114;12.434;2023-03-14T01:36:06;98738.56;;;10.06;100.00
33280;BME280;20403;43.114;12.434;2023-03-14T01:38:32;98733.69;;;9.98;100.00
33280;BME280;20403;43.114;12.434;2023-03-14T01:40:58;98731.31;;;10.08;100.00
33280;BME280;20403;43.114;12.434;2023-03-14T01:43:24;98722.16;;;10.05;100.00
33280;BME280;20403;43.114;12.434;2023-03-14T01:48:31;98732.88;;;10.21;100.00
33280;BME280;20403;43.114;12.434;2023-03-14T01:50:59;98722.34;;;10.16;100.00
33280;BME280;20403;43.114;12.434;2023-03-14T01:53:25;98717.97;;;10.40;100.00
33280;BME280;20403;43.114;12.434;2023-03-14T01:55:52;98715.69;;;10.84;100.00
33280;BME280;20403;43.114;12.434;2023-03-14T01:58:23;98697.81;;;11.21;100.00
33280;BME280;20403;43.114;12.434;2023-03-14T02:00:50;98694.69;;;11.53;100.00
33280;BME280;20403;43.114;12.434;2023-03-14T02:03:17;98693.41;;;11.55;100.00
33280;BME280;20403;43.114;12.434;2023-03-14T02:05:46;98684.53;;;11.56;100.00
33280;BME280;20403;43.114;12.434;2023-03-14T02:08:15;98661.19;;;11.67;100.00
33280;BME280;20403;43.114;12.434;2023-03-14T02:10:47;98655.63;;;11.80;100.00
33280;BME280;20403;43.114;12.434;2023-03-14T02:13:14;98667.84;;;11.91;100.00
33280;BME280;20403;43.114;12.434;2023-03-14T02:15:41;98655.88;;;11.95;100.00
33280;BME280;20403;43.114;12.434;2023-03-14T02:18:07;98649.91;;;12.00;100.00
33280;BME280;20403;43.114;12.434;2023-03-14T02:23:48;98641.97;;;11.22;100.00
33280;BME280;20403;43.114;12.434;2023-03-14T02:26:23;98621.16;;;10.93;100.00
33280;BME280;20403;43.114;12.434;2023-03-14T02:28:52;98619.63;;;10.81;100.00
33280;BME280;20403;43.114;12.434;2023-03-14T02:31:19;98613.25;;;10.60;100.00
33280;BME280;20403;43.114;12.434;2023-03-14T02:33:46;98615.19;;;10.36;100.00
33280;BME280;20403;43.114;12.434;2023-03-14T02:36:13;98609.63;;;10.32;100.00
33280;BME280;20403;43.114;12.434;2023-03-14T02:41:12;98595.59;;;10.09;100.00
33280;BME280;20403;43.114;12.434;2023-03-14T02:43:37;98591.94;;;9.94;100.00
33280;BME280;20403;43.114;12.434;2023-03-14T02:46:04;98592.84;;;9.87;100.00
33280;BME280;20403;43.114;12.434;2023-03-14T02:48:31;98592.63;;;9.89;100.00
33280;BME280;20403;43.114;12.434;2023-03-14T02:50:59;98589.53;;;9.92;100.00
33280;BME280;20403;43.114;12.434;2023-03-14T02:53:31;98589.41;;;9.99;100.00
33280;BME280;20403;43.114;12.434;2023-03-14T02:55:57;98592.25;;;9.97;100.00
33280;BME280;20403;43.114;12.434;2023-03-14T02:58:23;98587.50;;;9.94;100.00
33280;BME280;20403;43.114;12.434;2023-03-14T03:00:48;98570.84;;;9.95;100.00
33280;BME280;20403;43.114;12.434;2023-03-14T03:03:14;98562.38;;;9.88;100.00
33280;BME280;20403;43.114;12.434;2023-03-14T03:05:40;98559.13;;;9.69;100.00
33280;BME280;20403;43.114;12.434;2023-03-14T03:08:06;98564.56;;;9.67;100.00
33280;BME280;20403;43.114;12.434;2023-03-14T03:10:32;98559.03;;;9.64;100.00
33280;BME280;20403;43.114;12.434;2023-03-14T03:12:57;98548.75;;;9.57;100.00
33280;BME280;20403;43.114;12.434;2023-03-14T03:15:23;98540.97;;;9.34;100.00
33280;BME280;20403;43.114;12.434;2023-03-14T03:17:48;98534.38;;;9.43;100.00
33280;BME280;20403;43.114;12.434;2023-03-14T03:20:14;98538.47;;;9.39;100.00
33280;BME280;20403;43.114;12.434;2023-03-14T03:22:40;98529.97;;;9.32;100.00
33280;BME280;20403;43.114;12.434;2023-03-14T03:25:06;98537.22;;;9.18;100.00
33280;BME280;20403;43.114;12.434;2023-03-14T03:27:34;98527.28;;;9.27;100.00
33280;BME280;20403;43.114;12.434;2023-03-14T03:30:00;98519.69;;;9.25;100.00
33280;BME280;20403;43.114;12.434;2023-03-14T03:32:25;98529.19;;;9.43;100.00
33280;BME280;20403;43.114;12.434;2023-03-14T03:34:51;98526.44;;;9.50;100.00
33280;BME280;20403;43.114;12.434;2023-03-14T03:37:17;98520.69;;;9.48;100.00
33280;BME280;20403;43.114;12.434;2023-03-14T03:39:43;98510.13;;;9.66;100.00
33280;BME280;20403;43.114;12.434;2023-03-14T03:42:08;98503.44;;;9.70;100.00
33280;BME280;20403;43.114;12.434;2023-03-14T03:44:34;98503.56;;;10.04;100.00
33280;BME280;20403;43.114;12.434;2023-03-14T03:47:00;98508.91;;;10.26;100.00
33280;BME280;20403;43.114;12.434;2023-03-14T03:49:29;98502.72;;;10.44;100.00
33280;BME280;20403;43.114;12.434;2023-03-14T03:51:55;98492.56;;;10.59;100.00
33280;BME280;20403;43.114;12.434;2023-03-14T03:54:20;98492.16;;;10.67;100.00
33280;BME280;20403;43.114;12.434;2023-03-14T03:56:45;98491.78;;;10.59;100.00
33280;BME280;20403;43.114;12.434;2023-03-14T03:59:11;98478.31;;;10.50;100.00
33280;BME280;20403;43.114;12.434;2023-03-14T04:01:36;98486.94;;;10.50;100.00
33280;BME280;20403;43.114;12.434;2023-03-14T04:04:02;98488.19;;;10.65;100.00
33280;BME280;20403;43.114;12.434;2023-03-14T04:06:27;98486.47;;;10.70;100.00
33280;BME280;20403;43.114;12.434;2023-03-14T04:08:53;98486.63;;;10.81;100.00
33280;BME280;20403;43.114;12.434;2023-03-14T04:11:19;98491.06;;;10.63;100.00
33280;BME280;20403;43.114;12.434;2023-03-14T04:13:44;98496.69;;;10.26;100.00
33280;BME280;20403;43.114;12.434;2023-03-14T04:16:15;98491.97;;;10.12;100.00
33280;BME280;20403;43.114;12.434;2023-03-14T04:18:41;98493.28;;;9.97;100.00
33280;BME280;20403;43.114;12.434;2023-03-14T04:21:06;98493.22;;;9.80;100.00
33280;BME280;20403;43.114;12.434;2023-03-14T04:23:32;98494.56;;;9.83;100.00
33280;BME280;20403;43.114;12.434;2023-03-14T04:25:59;98496.31;;;9.65;100.00
33280;BME280;20403;43.114;12.434;2023-03-14T04:28:24;98492.16;;;9.53;100.00
33280;BME280;20403;43.114;12.434;2023-03-14T04:30:49;98498.63;;;9.38;100.00
33280;BME280;20403;43.114;12.434;2023-03-14T04:33:15;98499.09;;;9.23;100.00
33280;BME280;20403;43.114;12.434;2023-03-14T04:35:43;98498.63;;;9.15;100.00
33280;BME280;20403;43.114;12.434;2023-03-14T04:38:08;98496.84;;;9.03;100.00
33280;BME280;20403;43.114;12.434;2023-03-14T04:40:39;98494.78;;;8.82;100.00
33280;BME280;20403;43.114;12.434;2023-03-14T04:43:06;98488.69;;;8.76;100.00
33280;BME280;20403;43.114;12.434;2023-03-14T04:45:31;98479.66;;;8.79;100.00
33280;BME280;20403;43.114;12.434;2023-03-14T04:47:57;98477.16;;;8.84;100.00
33280;BME280;20403;43.114;12.434;2023-03-14T04:50:22;98472.28;;;8.64;100.00
33280;BME280;20403;43.114;12.434;2023-03-14T04:52:47;98466.41;;;8.69;100.00
33280;BME280;20403;43.114;12.434;2023-03-14T04:55:13;98458.50;;;8.87;100.00
33280;BME280;20403;43.114;12.434;2023-03-14T04:57:39;98454.13;;;8.88;100.00
33280;BME280;20403;43.114;12.434;2023-03-14T05:00:05;98454.78;;;8.83;100.00
33280;BME280;20403;43.114;12.434;2023-03-14T05:02:34;98451.84;;;8.91;100.00
33280;BME280;20403;43.114;12.434;2023-03-14T05:04:59;98446.75;;;8.96;100.00
33280;BME280;20403;43.114;12.434;2023-03-14T05:07:25;98445.63;;;8.80;100.00
33280;BME280;20403;43.114;12.434;2023-03-14T05:09:51;98447.78;;;8.83;100.00
33280;BME280;20403;43.114;12.434;2023-03-14T05:12:17;98439.88;;;8.78;100.00
33280;BME280;20403;43.114;12.434;2023-03-14T05:14:43;98447.31;;;8.87;100.00
33280;BME280;20403;43.114;12.434;2023-03-14T05:17:08;98453.44;;;9.04;100.00
33280;BME280;20403;43.114;12.434;2023-03-14T05:19:35;98450.25;;;9.02;100.00
33280;BME280;20403;43.114;12.434;2023-03-14T05:22:00;98454.31;;;9.10;100.00
33280;BME280;20403;43.114;12.434;2023-03-14T05:24:25;98469.34;;;9.19;100.00
33280;BME280;20403;43.114;12.434;2023-03-14T05:26:51;98466.41;;;9.28;100.00
33280;BME280;20403;43.114;12.434;2023-03-14T05:29:16;98453.38;;;9.39;100.00
33280;BME280;20403;43.114;12.434;2023-03-14T05:31:41;98463.63;;;9.58;100.00
33280;BME280;20403;43.114;12.434;2023-03-14T05:34:07;98472.53;;;9.74;100.00
33280;BME280;20403;43.114;12.434;2023-03-14T05:36:32;98477.59;;;9.80;100.00
33280;BME280;20403;43.114;12.434;2023-03-14T05:38:58;98484.06;;;9.78;100.00
33280;BME280;20403;43.114;12.434;2023-03-14T05:41:23;98489.81;;;9.92;100.00
33280;BME280;20403;43.114;12.434;2023-03-14T05:43:49;98493.97;;;9.93;100.00
33280;BME280;20403;43.114;12.434;2023-03-14T05:46:14;98503.69;;;9.97;100.00
33280;BME280;20403;43.114;12.434;2023-03-14T05:48:39;98508.03;;;9.92;100.00
33280;BME280;20403;43.114;12.434;2023-03-14T05:51:05;98501.66;;;9.99;100.00
33280;BME280;20403;43.114;12.434;2023-03-14T05:53:31;98500.41;;;10.02;100.00
33280;BME280;20403;43.114;12.434;2023-03-14T05:55:56;98498.13;;;10.05;100.00
33280;BME280;20403;43.114;12.434;2023-03-14T05:58:23;98500.16;;;10.03;100.00
33280;BME280;20403;43.114;12.434;2023-03-14T06:00:49;98514.53;;;10.06;100.00
33280;BME280;20403;43.114;12.434;2023-03-14T06:03:15;98497.78;;;10.02;100.00
33280;BME280;20403;43.114;12.434;2023-03-14T06:05:40;98501.94;;;10.15;100.00
33280;BME280;20403;43.114;12.434;2023-03-14T06:08:05;98487.75;;;10.22;100.00
33280;BME280;20403;43.114;12.434;2023-03-14T06:10:31;98449.72;;;10.38;100.00
33280;BME280;20403;43.114;12.434;2023-03-14T06:12:56;98405.94;;;10.91;100.00
33280;BME280;20403;43.114;12.434;2023-03-14T06:15:22;98332.06;;;11.62;100.00
33280;BME280;20403;43.114;12.434;2023-03-14T06:17:47;98281.75;;;11.98;100.00
33280;BME280;20403;43.114;12.434;2023-03-14T06:20:13;98310.88;;;12.17;100.00
33280;BME280;20403;43.114;12.434;2023-03-14T06:22:39;98350.78;;;12.08;100.00
33280;BME280;20403;43.114;12.434;2023-03-14T06:25:06;98353.41;;;12.08;100.00
33280;BME280;20403;43.114;12.434;2023-03-14T06:27:31;98347.31;;;11.97;100.00
33280;BME280;20403;43.114;12.434;2023-03-14T06:29:56;98338.69;;;11.96;100.00
33280;BME280;20403;43.114;12.434;2023-03-14T06:32:22;98368.00;;;12.04;100.00
33280;BME280;20403;43.114;12.434;2023-03-14T06:34:47;98374.84;;;12.10;100.00
33280;BME280;20403;43.114;12.434;2023-03-14T06:37:13;98381.88;;;12.36;100.00
33280;BME280;20403;43.114;12.434;2023-03-14T06:39:38;98383.53;;;12.48;100.00
33280;BME280;20403;43.114;12.434;2023-03-14T06:42:04;98368.75;;;12.69;100.00
33280;BME280;20403;43.114;12.434;2023-03-14T06:44:30;98382.28;;;13.13;100.00
33280;BME280;20403;43.114;12.434;2023-03-14T06:46:56;98386.16;;;13.63;100.00
33280;BME280;20403;43.114;12.434;2023-03-14T06:49:21;98398.25;;;14.11;100.00
33280;BME280;20403;43.114;12.434;2023-03-14T06:51:47;98398.78;;;14.54;100.00
33280;BME280;20403;43.114;12.434;2023-03-14T06:54:12;98388.84;;;14.56;100.00
33280;BME280;20403;43.114;12.434;2023-03-14T06:56:37;98376.91;;;15.04;100.00
33280;BME280;20403;43.114;12.434;2023-03-14T06:59:03;98363.19;;;15.72;100.00
33280;BME280;20403;43.114;12.434;2023-03-14T07:01:30;98360.88;;;16.00;100.00
33280;BME280;20403;43.114;12.434;2023-03-14T07:03:57;98368.00;;;16.00;100.00
33280;BME280;20403;43.114;12.434;2023-03-14T07:06:23;98366.72;;;15.92;100.00
33280;BME280;20403;43.114;12.434;2023-03-14T07:08:49;98350.81;;;15.68;100.00
33280;BME280;20403;43.114;12.434;2023-03-14T07:11:14;98339.94;;;15.90;100.00
33280;BME280;20403;43.114;12.434;2023-03-14T07:13:40;98337.19;;;16.34;100.00
33280;BME280;20403;43.114;12.434;2023-03-14T07:16:06;98345.53;;;16.42;98.66
33280;BME280;20403;43.114;12.434;2023-03-14T07:18:32;98332.00;;;16.77;100.00
33280;BME280;20403;43.114;12.434;2023-03-14T07:20:58;98323.28;;;16.82;100.00
33280;BME280;20403;43.114;12.434;2023-03-14T07:23:23;98307.38;;;16.92;93.35
33280;BME280;20403;43.114;12.434;2023-03-14T07:25:49;98296.66;;;17.08;93.75
33280;BME280;20403;43.114;12.434;2023-03-14T07:28:15;98297.09;;;16.91;91.86
33280;BME280;20403;43.114;12.434;2023-03-14T07:30:41;98297.06;;;17.15;93.94
33280;BME280;20403;43.114;12.434;2023-03-14T07:33:06;98299.94;;;16.70;91.31
33280;BME280;20403;43.114;12.434;2023-03-14T07:35:32;98317.81;;;16.97;96.80
33280;BME280;20403;43.114;12.434;2023-03-14T07:37:57;98306.13;;;16.60;88.53
33280;BME280;20403;43.114;12.434;2023-03-14T07:40:22;98293.63;;;16.71;90.97
33280;BME280;20403;43.114;12.434;2023-03-14T07:42:48;98311.34;;;16.90;95.62
33280;BME280;20403;43.114;12.434;2023-03-14T07:45:14;98305.41;;;17.03;91.23
33280;BME280;20403;43.114;12.434;2023-03-14T07:47:40;98293.56;;;16.76;88.79
33280;BME280;20403;43.114;12.434;2023-03-14T07:50:06;98303.38;;;16.95;89.66
33280;BME280;20403;43.114;12.434;2023-03-14T07:52:31;98314.22;;;16.40;92.69
33280;BME280;20403;43.114;12.434;2023-03-14T07:54:56;98314.75;;;16.13;97.40
33280;BME280;20403;43.114;12.434;2023-03-14T07:57:22;98305.47;;;15.52;100.00
33280;BME280;20403;43.114;12.434;2023-03-14T07:59:49;98311.38;;;16.07;92.89
33280;BME280;20403;43.114;12.434;2023-03-14T08:02:14;98290.22;;;16.47;93.06
33280;BME280;20403;43.114;12.434;2023-03-14T08:04:39;98278.91;;;16.46;89.41
33280;BME280;20403;43.114;12.434;2023-03-14T08:07:05;98271.47;;;16.53;85.70
33280;BME280;20403;43.114;12.434;2023-03-14T08:09:31;98262.50;;;16.54;89.51
33280;BME280;20403;43.114;12.434;2023-03-14T08:11:57;98269.09;;;16.76;80.92
33280;BME280;20403;43.114;12.434;2023-03-14T08:14:22;98264.56;;;17.00;77.86
33280;BME280;20403;43.114;12.434;2023-03-14T08:16:51;98284.41;;;17.17;77.35
33280;BME280;20403;43.114;12.434;2023-03-14T08:19:16;98269.09;;;16.76;82.68
33280;BME280;20403;43.114;12.434;2023-03-14T08:21:42;98267.13;;;16.63;85.85
33280;BME280;20403;43.114;12.434;2023-03-14T08:24:07;98275.91;;;16.29;91.28
33280;BME280;20403;43.114;12.434;2023-03-14T08:26:33;98273.50;;;16.08;91.06
33280;BME280;20403;43.114;12.434;2023-03-14T08:28:58;98271.75;;;15.99;93.85
33280;BME280;20403;43.114;12.434;2023-03-14T08:31:24;98275.06;;;15.80;97.82
33280;BME280;20403;43.114;12.434;2023-03-14T08:33:50;98274.59;;;16.31;92.22
33280;BME280;20403;43.114;12.434;2023-03-14T08:36:17;98283.81;;;17.01;87.17
33280;BME280;20403;43.114;12.434;2023-03-14T08:38:43;98283.03;;;17.38;79.47
33280;BME280;20403;43.114;12.434;2023-03-14T08:41:09;98280.16;;;18.05;78.48
33280;BME280;20403;43.114;12.434;2023-03-14T08:43:35;98284.00;;;18.41;73.45
33280;BME280;20403;43.114;12.434;2023-03-14T08:46:01;98294.94;;;18.48;69.24
33280;BME280;20403;43.114;12.434;2023-03-14T08:48:27;98291.03;;;18.32;68.41
33280;BME280;20403;43.114;12.434;2023-03-14T08:50:55;98297.88;;;17.86;71.54
33280;BME280;20403;43.114;12.434;2023-03-14T08:53:20;98283.38;;;17.51;69.34
33280;BME280;20403;43.114;12.434;2023-03-14T08:55:47;98286.19;;;17.21;69.71
33280;BME280;20403;43.114;12.434;2023-03-14T08:58:14;98281.31;;;17.10;68.41
33280;BME280;20403;43.114;12.434;2023-03-14T09:00:40;98278.63;;;17.15;69.18
33280;BME280;20403;43.114;12.434;2023-03-14T09:03:05;98275.00;;;17.11;72.03
33280;BME280;20403;43.114;12.434;2023-03-14T09:05:33;98293.19;;;16.88;68.53
33280;BME280;20403;43.114;12.434;2023-03-14T09:07:59;98266.31;;;16.43;71.09
33280;BME280;20403;43.114;12.434;2023-03-14T09:10:24;98271.06;;;16.41;74.03
33280;BME280;20403;43.114;12.434;2023-03-14T09:12:49;98268.75;;;16.10;74.98
33280;BME280;20403;43.114;12.434;2023-03-14T09:15:16;98255.09;;;16.32;75.20
33280;BME280;20403;43.114;12.434;2023-03-14T09:17:42;98265.41;;;16.29;76.26
33280;BME280;20403;43.114;12.434;2023-03-14T09:20:09;98254.22;;;16.18;77.64
33280;BME280;20403;43.114;12.434;2023-03-14T09:22:34;98244.03;;;16.11;79.27
33280;BME280;20403;43.114;12.434;2023-03-14T09:25:02;98266.34;;;16.14;80.61
33280;BME280;20403;43.114;12.434;2023-03-14T09:27:27;98265.50;;;15.89;83.83
33280;BME280;20403;43.114;12.434;2023-03-14T09:29:52;98259.91;;;15.72;86.30
33280;BME280;20403;43.114;12.434;2023-03-14T09:32:18;98249.91;;;15.74;89.42
33280;BME280;20403;43.114;12.434;2023-03-14T09:34:43;98246.47;;;15.68;92.77
33280;BME280;20403;43.114;12.434;2023-03-14T09:37:08;98260.69;;;15.67;94.60
33280;BME280;20403;43.114;12.434;2023-03-14T09:39:34;98245.22;;;15.61;97.73
33280;BME280;20403;43.114;12.434;2023-03-14T09:42:02;98244.66;;;15.64;100.00
33280;BME280;20403;43.114;12.434;2023-03-14T09:44:42;98236.06;;;15.58;100.00
33280;BME280;20403;43.114;12.434;2023-03-14T09:47:11;98235.50;;;15.61;100.00
33280;BME280;20403;43.114;12.434;2023-03-14T09:49:39;98237.88;;;15.63;100.00
33280;BME280;20403;43.114;12.434;2023-03-14T09:52:14;98239.47;;;15.59;100.00
33280;BME280;20403;43.114;12.434;2023-03-14T09:54:47;98238.72;;;15.53;100.00
33280;BME280;20403;43.114;12.434;2023-03-14T09:57:17;98232.44;;;15.49;100.00
33280;BME280;20403;43.114;12.434;2023-03-14T09:59:45;98234.56;;;15.47;100.00
33280;BME280;20403;43.114;12.434;2023-03-14T10:02:15;98222.28;;;15.37;100.00
33280;BME280;20403;43.114;12.434;2023-03-14T10:04:41;98219.41;;;15.33;100.00
33280;BME280;20403;43.114;12.434;2023-03-14T10:07:29;98216.06;;;15.28;100.00
33280;BME280;20403;43.114;12.434;2023-03-14T10:09:55;98208.19;;;15.28;100.00
33280;BME280;20403;43.114;12.434;2023-03-14T10:12:34;98202.16;;;15.27;100.00
33280;BME280;20403;43.114;12.434;2023-03-14T10:15:11;98202.56;;;15.40;100.00
33280;BME280;20403;43.114;12.434;2023-03-14T10:17:46;98198.91;;;15.36;100.00
33280;BME280;20403;43.114;12.434;2023-03-14T10:20:39;98200.78;;;15.35;100.00
33280;BME280;20403;43.114;12.434;2023-03-14T10:25:40;98187.38;;;15.37;100.00
33280;BME280;20403;43.114;12.434;2023-03-14T10:28:28;98183.41;;;15.39;100.00
33280;BME280;20403;43.114;12.434;2023-03-14T10:30:54;98173.63;;;15.45;100.00
33280;BME280;20403;43.114;12.434;2023-03-14T10:36:00;98153.38;;;15.50;100.00
33280;BME280;20403;43.114;12.434;2023-03-14T10:38:31;98142.34;;;15.48;100.00
33280;BME280;20403;43.114;12.434;2023-03-14T10:40:57;98129.59;;;15.31;100.00
33280;BME280;20403;43.114;12.434;2023-03-14T10:43:30;98125.94;;;15.32;100.00
33280;BME280;20403;43.114;12.434;2023-03-14T10:46:16;98121.25;;;15.24;100.00
33280;BME280;20403;43.114;12.434;2023-03-14T10:48:43;98122.91;;;15.15;100.00
33280;BME280;20403;43.114;12.434;2023-03-14T10:53:43;98109.78;;;15.15;100.00
33280;BME280;20403;43.114;12.434;2023-03-14T10:56:20;98109.53;;;15.17;100.00
33280;BME280;20403;43.114;12.434;2023-03-14T10:58:50;98111.91;;;15.13;100.00
33280;BME280;20403;43.114;12.434;2023-03-14T11:03:48;98118.50;;;15.10;100.00
33280;BME280;20403;43.114;12.434;2023-03-14T11:06:25;98115.34;;;15.08;100.00
33280;BME280;20403;43.114;12.434;2023-03-14T11:09:02;98129.13;;;14.95;100.00
33280;BME280;20403;43.114;12.434;2023-03-14T11:11:32;98130.41;;;14.98;100.00
33280;BME280;20403;43.114;12.434;2023-03-14T11:14:27;98114.66;;;14.98;100.00
33280;BME280;20403;43.114;12.434;2023-03-14T11:19:32;98093.03;;;14.71;100.00
33280;BME280;20403;43.114;12.434;2023-03-14T11:25:14;98069.00;;;14.94;100.00
33280;BME280;20403;43.114;12.434;2023-03-14T11:27:43;98071.31;;;15.00;100.00
33280;BME280;20403;43.114;12.434;2023-03-14T11:30:46;98082.84;;;15.04;100.00
33280;BME280;20403;43.114;12.434;2023-03-14T11:33:27;98072.72;;;14.87;100.00
33280;BME280;20403;43.114;12.434;2023-03-14T11:36:09;98064.59;;;14.89;100.00
33280;BME280;20403;43.114;12.434;2023-03-14T11:38:52;98046.78;;;14.86;100.00
33280;BME280;20403;43.114;12.434;2023-03-14T11:41:29;98062.31;;;14.77;100.00
33280;BME280;20403;43.114;12.434;2023-03-14T11:43:57;98061.34;;;14.68;100.00
33280;BME280;20403;43.114;12.434;2023-03-14T11:46:31;98041.13;;;14.68;100.00
33280;BME280;20403;43.114;12.434;2023-03-14T11:49:16;98048.53;;;14.61;100.00
33280;BME280;20403;43.114;12.434;2023-03-14T11:51:46;98035.66;;;14.65;100.00
33280;BME280;20403;43.114;12.434;2023-03-14T11:57:01;98037.06;;;14.47;100.00
33280;BME280;20403;43.114;12.434;2023-03-14T11:59:31;98039.91;;;14.56;100.00
33280;BME280;20403;43.114;12.434;2023-03-14T12:02:09;98029.44;;;14.56;100.00
33280;BME280;20403;43.114;12.434;2023-03-14T12:04:50;98016.31;;;14.56;100.00
33280;BME280;20403;43.114;12.434;2023-03-14T12:07:19;98011.53;;;14.58;100.00
33280;BME280;20403;43.114;12.434;2023-03-14T12:09:47;98013.03;;;14.69;100.00
33280;BME280;20403;43.114;12.434;2023-03-14T12:12:18;98006.63;;;14.46;100.00
33280;BME280;20403;43.114;12.434;2023-03-14T12:14:59;98013.50;;;14.42;100.00
33280;BME280;20403;43.114;12.434;2023-03-14T12:17:35;97999.88;;;14.35;100.00
33280;BME280;20403;43.114;12.434;2023-03-14T12:25:18;97972.91;;;14.29;100.00
33280;BME280;20403;43.114;12.434;2023-03-14T12:43:34;97938.88;;;14.24;100.00
33280;BME280;20403;43.114;12.434;2023-03-14T12:48:44;97922.78;;;14.36;100.00
33280;BME280;20403;43.114;12.434;2023-03-14T12:51:18;97912.50;;;14.44;100.00
33280;BME280;20403;43.114;12.434;2023-03-14T13:02:13;97892.75;;;14.52;100.00
33280;BME280;20403;43.114;12.434;2023-03-14T13:04:36;97886.47;;;14.48;100.00
33280;BME280;20403;43.114;12.434;2023-03-14T13:07:03;97883.66;;;14.39;100.00
33280;BME280;20403;43.114;12.434;2023-03-14T13:12:10;97881.03;;;14.39;100.00
33280;BME280;20403;43.114;12.434;2023-03-14T13:14:40;97877.88;;;14.42;100.00
33280;BME280;20403;43.114;12.434;2023-03-14T13:17:10;97879.53;;;14.33;100.00
33280;BME280;20403;43.114;12.434;2023-03-14T13:19:36;97879.59;;;14.23;100.00
33280;BME280;20403;43.114;12.434;2023-03-14T13:22:04;97867.53;;;14.27;100.00
33280;BME280;20403;43.114;12.434;2023-03-14T13:24:33;97864.59;;;14.34;100.00
33280;BME280;20403;43.114;12.434;2023-03-14T13:26:59;97846.16;;;14.39;100.00
33280;BME280;20403;43.114;12.434;2023-03-14T13:29:27;97833.47;;;14.51;100.00
33280;BME280;20403;43.114;12.434;2023-03-14T13:31:55;97839.91;;;14.35;100.00
33280;BME280;20403;43.114;12.434;2023-03-14T13:34:32;97837.03;;;14.36;100.00
33280;BME280;20403;43.114;12.434;2023-03-14T13:36:58;97832.72;;;14.45;100.00
33280;BME280;20403;43.114;12.434;2023-03-14T13:39:25;97836.31;;;14.31;100.00
33280;BME280;20403;43.114;12.434;2023-03-14T13:42:01;97837.28;;;14.35;100.00
33280;BME280;20403;43.114;12.434;2023-03-14T13:44:46;97827.88;;;14.34;100.00
33280;BME280;20403;43.114;12.434;2023-03-14T13:47:15;97814.03;;;14.28;100.00
33280;BME280;20403;43.114;12.434;2023-03-14T13:49:42;97821.09;;;14.27;100.00